createdAt,value
2022-08-09T00:00:04.154Z,71.91
2022-08-09T00:02:49.464Z,71.38
2022-08-09T00:06:18.224Z,71.04
2022-08-09T00:08:12.874Z,70.74
2022-08-09T00:10:59.107Z,74.12
2022-08-09T00:13:31.754Z,74.57
2022-08-09T00:16:02.450Z,75.00
2022-08-09T00:18:35.876Z,73.40
2022-08-09T00:21:05.159Z,71.31
2022-08-09T00:23:56.194Z,71.11
2022-08-09T00:26:32.213Z,71.93
2022-08-09T00:29:03.339Z,71.61
2022-08-09T00:31:58.594Z,71.67
2022-08-09T00:34:28.428Z,72.54
2022-08-09T00:37:02.181Z,72.06
2022-08-09T00:40:13.334Z,71.86
2022-08-09T00:44:15.861Z,71.31
2022-08-09T00:45:15.845Z,72.33
2022-08-09T00:47:45.389Z,72.30
2022-08-09T00:50:14.201Z,70.65
2022-08-09T00:52:43.409Z,72.37
2022-08-09T00:55:32.712Z,72.98
2022-08-09T00:58:00.116Z,74.81
2022-08-09T01:00:30.228Z,74.13
2022-08-09T01:03:08.880Z,74.74
2022-08-09T01:05:51.604Z,75.41
2022-08-09T01:08:28.128Z,75.96
2022-08-09T01:11:08.667Z,76.29
2022-08-09T01:13:58.975Z,76.08
2022-08-09T01:16:33.595Z,73.34
2022-08-09T01:19:42.878Z,73.44
2022-08-09T01:22:23.508Z,74.88
2022-08-09T01:24:58.567Z,73.55
2022-08-09T01:27:31.075Z,71.04
2022-08-09T01:30:02.055Z,71.24
2022-08-09T01:32:34.561Z,70.42
2022-08-09T01:35:17.963Z,68.65
2022-08-09T01:38:07.701Z,67.38
2022-08-09T01:40:42.432Z,65.64
2022-08-09T01:43:12.399Z,65.72
2022-08-09T01:45:44.720Z,66.76
2022-08-09T01:48:16.860Z,69.93
2022-08-09T01:50:48.442Z,69.50
2022-08-09T01:53:19.294Z,68.18
2022-08-09T01:55:49.384Z,66.76
2022-08-09T01:58:24.154Z,66.68
2022-08-09T02:00:54.709Z,67.14
2022-08-09T02:03:23.660Z,67.93
2022-08-09T02:06:03.726Z,66.85
2022-08-09T02:08:56.920Z,67.90
2022-08-09T02:11:42.599Z,67.72
2022-08-09T02:14:25.460Z,65.54
2022-08-09T02:17:15.006Z,66.45
2022-08-09T02:19:44.524Z,67.89
2022-08-09T02:22:31.724Z,65.89
2022-08-09T02:25:09.820Z,66.19
2022-08-09T02:28:00.533Z,66.49
2022-08-09T02:30:36.109Z,65.42
2022-08-09T02:33:08.042Z,67.16
2022-08-09T02:36:03.110Z,67.32
2022-08-09T02:38:34.945Z,67.89
2022-08-09T02:41:07.668Z,69.00
2022-08-09T02:43:54.153Z,67.10
2022-08-09T02:46:27.891Z,68.35
2022-08-09T02:49:00.363Z,67.34
2022-08-09T02:51:36.989Z,68.40
2022-08-09T02:54:10.357Z,68.83
2022-08-09T02:56:48.699Z,68.14
2022-08-09T02:59:26.471Z,66.88
2022-08-09T03:02:09.775Z,65.91
2022-08-09T03:04:42.192Z,66.80
2022-08-09T03:07:14.117Z,66.96
2022-08-09T03:09:54.072Z,66.58
2022-08-09T03:12:25.804Z,68.38
2022-08-09T03:14:54.613Z,67.48
2022-08-09T03:17:27.089Z,68.65
2022-08-09T03:19:59.985Z,70.46
2022-08-09T03:22:42.113Z,70.69
2022-08-09T03:25:25.978Z,69.85
2022-08-09T03:27:56.422Z,70.56
2022-08-09T03:30:33.696Z,68.48
2022-08-09T03:33:05.816Z,67.67
2022-08-09T03:36:11.285Z,67.03
2022-08-09T03:38:31.161Z,70.06
2022-08-09T03:40:59.455Z,68.62
2022-08-09T03:43:32.046Z,67.94
2022-08-09T03:46:04.315Z,70.32
2022-08-09T03:48:52.255Z,69.81
2022-08-09T03:51:57.171Z,69.95
2022-08-09T03:54:11.556Z,69.85
2022-08-09T03:56:41.120Z,69.00
2022-08-09T03:59:17.014Z,69.92
2022-08-09T04:01:50.603Z,68.76
2022-08-09T04:04:20.549Z,68.93
2022-08-09T04:06:53.141Z,66.70
2022-08-09T04:09:47.501Z,64.83
2022-08-09T04:12:30.411Z,63.41
2022-08-09T04:15:16.979Z,65.23
2022-08-09T04:17:47.436Z,67.19
2022-08-09T04:20:18.405Z,66.74
2022-08-09T04:22:47.712Z,66.80
2022-08-09T04:25:18.762Z,67.66
2022-08-09T04:27:49.185Z,68.93
2022-08-09T04:30:20.990Z,68.44
2022-08-09T04:32:52.572Z,66.72
2022-08-09T04:35:23.991Z,66.47
2022-08-09T04:37:52.232Z,63.07
2022-08-09T04:40:35.872Z,66.37
2022-08-09T04:43:05.996Z,67.70
2022-08-09T04:45:36.260Z,69.27
2022-08-09T04:48:23.828Z,69.82
2022-08-09T04:51:03.033Z,68.90
2022-08-09T04:53:31.676Z,66.50
2022-08-09T04:56:00.405Z,68.88
2022-08-09T04:58:29.886Z,70.45
2022-08-09T05:01:00.275Z,68.97
2022-08-09T05:03:41.201Z,66.17
2022-08-09T05:06:21.942Z,67.05
2022-08-09T05:09:00.393Z,68.77
2022-08-09T05:11:35.269Z,68.33
2022-08-09T05:14:05.802Z,68.37
2022-08-09T05:16:58.333Z,68.68
2022-08-09T05:19:25.984Z,67.69
2022-08-09T05:22:01.402Z,69.55
2022-08-09T05:24:29.771Z,67.03
2022-08-09T05:26:58.156Z,69.49
2022-08-09T05:29:31.482Z,67.82
2022-08-09T05:32:03.736Z,70.74
2022-08-09T05:34:34.265Z,68.29
2022-08-09T05:37:06.153Z,68.52
2022-08-09T05:39:36.087Z,66.99
2022-08-09T05:42:21.620Z,69.15
2022-08-09T05:44:52.076Z,68.87
2022-08-09T05:47:21.677Z,69.48
2022-08-09T05:50:31.249Z,67.43
2022-08-09T05:52:42.458Z,68.06
2022-08-09T05:55:20.963Z,67.36
2022-08-09T05:57:55.360Z,67.38
2022-08-09T06:00:26.835Z,63.63
2022-08-09T06:02:57.713Z,63.65
2022-08-09T06:05:30.716Z,67.19
2022-08-09T06:08:19.572Z,66.35
2022-08-09T06:10:53.581Z,68.05
2022-08-09T06:13:21.960Z,67.69
2022-08-09T06:15:51.725Z,66.04
2022-08-09T06:18:25.099Z,68.56
2022-08-09T06:20:57.841Z,70.99
2022-08-09T06:23:55.434Z,71.24
2022-08-09T06:26:20.284Z,70.07
2022-08-09T06:28:50.304Z,70.57
2022-08-09T06:31:30.558Z,69.92
2022-08-09T06:34:00.034Z,70.18
2022-08-09T06:36:29.841Z,69.32
2022-08-09T06:39:02.463Z,69.62
2022-08-09T06:42:08.186Z,69.58
2022-08-09T06:44:27.057Z,69.16
2022-08-09T06:46:55.787Z,68.78
2022-08-09T06:49:44.468Z,69.72
2022-08-09T06:52:15.648Z,69.33
2022-08-09T06:54:45.968Z,67.62
2022-08-09T06:57:14.346Z,66.39
2022-08-09T07:00:55.054Z,67.21
2022-08-09T07:02:33.947Z,68.87
2022-08-09T07:05:03.224Z,68.12
2022-08-09T07:08:00.632Z,68.63
2022-08-09T07:10:31.266Z,66.50
2022-08-09T07:13:00.742Z,69.34
2022-08-09T07:15:53.967Z,69.05
2022-08-09T07:18:39.465Z,69.28
2022-08-09T07:21:08.287Z,68.38
2022-08-09T07:23:56.715Z,68.37
2022-08-09T07:26:26.554Z,69.84
2022-08-09T07:29:09.047Z,69.26
2022-08-09T07:31:45.235Z,69.38
2022-08-09T07:34:20.154Z,67.51
2022-08-09T07:36:49.802Z,69.65
2022-08-09T07:39:20.274Z,69.27
2022-08-09T07:42:09.375Z,68.39
2022-08-09T07:44:52.347Z,69.74
2022-08-09T07:47:23.577Z,69.30
2022-08-09T07:50:08.020Z,70.10
2022-08-09T07:52:38.525Z,69.48
2022-08-09T07:55:09.437Z,70.57
2022-08-09T07:57:46.666Z,67.75
2022-08-09T08:00:20.457Z,67.16
2022-08-09T08:03:08.140Z,68.91
2022-08-09T08:05:39.149Z,67.84
2022-08-09T08:09:00.803Z,66.74
2022-08-09T08:12:10.982Z,69.32
2022-08-09T08:14:02.527Z,68.79
2022-08-09T08:16:34.537Z,67.72
2022-08-09T08:19:04.531Z,68.87
2022-08-09T08:21:33.364Z,68.48
2022-08-09T08:24:11.711Z,69.05
2022-08-09T08:26:56.079Z,70.36
2022-08-09T08:29:28.207Z,69.44
2022-08-09T08:32:03.373Z,67.91
2022-08-09T08:34:34.356Z,66.77
2022-08-09T08:37:03.348Z,67.09
2022-08-09T08:39:38.213Z,68.60
2022-08-09T08:42:12.260Z,69.36
2022-08-09T08:44:43.296Z,67.20
2022-08-09T08:47:14.686Z,66.29
2022-08-09T08:49:48.501Z,68.52
2022-08-09T08:55:07.701Z,69.10
2022-08-09T08:57:37.527Z,69.34
2022-08-09T09:00:20.337Z,68.84
2022-08-09T09:03:01.519Z,69.01
2022-08-09T09:06:00.710Z,68.30
2022-08-09T09:08:30.459Z,69.07
2022-08-09T09:11:03.169Z,68.48
2022-08-09T09:13:41.901Z,66.88
2022-08-09T09:16:30.341Z,66.42
2022-08-09T09:22:07.587Z,63.24
2022-08-09T09:24:43.462Z,62.63
2022-08-09T09:28:03.214Z,67.27
2022-08-09T09:30:24.743Z,64.71
2022-08-09T09:33:13.625Z,66.30
2022-08-09T09:36:02.806Z,62.94
2022-08-09T09:38:43.485Z,63.80
2022-08-09T09:41:13.281Z,63.28
2022-08-09T09:44:12.989Z,63.22
2022-08-09T09:46:52.019Z,65.09
2022-08-09T09:49:31.841Z,63.61
2022-08-09T09:52:16.327Z,66.82
2022-08-09T09:55:16.247Z,66.86
2022-08-09T09:58:03.825Z,64.88
2022-08-09T10:00:55.182Z,64.63
2022-08-09T10:03:40.268Z,64.41
2022-08-09T10:06:13.394Z,58.77
2022-08-09T10:08:54.516Z,59.90
2022-08-09T10:11:59.624Z,63.79
2022-08-09T10:14:27.702Z,61.72
2022-08-09T10:17:11.552Z,58.90
2022-08-09T10:19:53.097Z,59.31
2022-08-09T10:22:33.611Z,58.41
2022-08-09T10:25:10.843Z,54.93
2022-08-09T10:27:56.212Z,60.40
2022-08-09T10:34:05.203Z,62.97
2022-08-09T10:36:05.282Z,61.35
2022-08-09T10:38:56.201Z,58.85
2022-08-09T10:41:28.278Z,60.16
2022-08-09T10:44:01.085Z,61.52
2022-08-09T10:46:54.260Z,62.93
2022-08-09T10:49:50.523Z,64.92
2022-08-09T10:52:23.032Z,55.42
2022-08-09T10:54:56.258Z,53.19
2022-08-09T10:57:37.533Z,53.02
2022-08-09T11:00:32.493Z,56.50
2022-08-09T11:03:15.649Z,60.66
2022-08-09T11:06:08.529Z,54.85
2022-08-09T11:08:47.314Z,53.08
2022-08-09T11:11:18.077Z,56.63
2022-08-09T11:13:53.833Z,53.74
2022-08-09T11:16:37.247Z,56.07
2022-08-09T11:19:10.553Z,56.96
2022-08-09T11:21:56.982Z,52.87
2022-08-09T11:24:51.075Z,56.19
2022-08-09T11:28:03.633Z,53.97
2022-08-09T11:30:34.631Z,52.97
2022-08-09T11:33:06.152Z,50.88
2022-08-09T11:35:49.226Z,52.36
2022-08-09T11:38:19.580Z,52.26
2022-08-09T11:40:53.057Z,52.12
2022-08-09T11:43:41.423Z,53.64
2022-08-09T11:46:10.344Z,54.39
2022-08-09T11:48:48.317Z,54.09
2022-08-09T11:52:49.033Z,53.45
2022-08-09T11:54:28.716Z,51.83
2022-08-09T11:57:28.303Z,56.51
2022-08-09T12:00:16.324Z,55.64
2022-08-09T12:02:51.254Z,50.56
2022-08-09T12:05:22.728Z,50.33
2022-08-09T12:07:54.773Z,52.81
2022-08-09T12:10:39.709Z,51.03
2022-08-09T12:14:08.966Z,51.33
2022-08-09T12:16:03.164Z,52.53
2022-08-09T12:18:33.584Z,54.95
2022-08-09T12:21:03.137Z,54.13
2022-08-09T12:23:57.981Z,57.64
2022-08-09T12:26:25.493Z,54.34
2022-08-09T12:29:13.736Z,55.47
2022-08-09T12:32:02.607Z,52.74
2022-08-09T12:34:35.338Z,58.82
2022-08-09T12:37:21.347Z,57.26
2022-08-09T12:40:01.214Z,55.93
2022-08-09T12:42:31.852Z,54.15
2022-08-09T12:45:00.479Z,53.26
2022-08-09T12:47:37.111Z,57.47
2022-08-09T12:50:23.408Z,54.12
2022-08-09T12:53:08.953Z,53.60
2022-08-09T12:56:14.859Z,50.69
2022-08-09T12:58:29.390Z,53.08
2022-08-09T13:00:58.170Z,52.60
2022-08-09T13:03:53.825Z,49.53
2022-08-09T13:06:34.820Z,53.32
2022-08-09T13:09:06.937Z,54.18
2022-08-09T13:11:39.568Z,51.74
2022-08-09T13:14:41.251Z,50.29
2022-08-09T13:17:01.630Z,52.57
2022-08-09T13:20:06.925Z,55.90
2022-08-09T13:22:36.029Z,56.92
2022-08-09T13:25:13.779Z,53.97
2022-08-09T13:27:48.897Z,54.74
2022-08-09T13:30:51.291Z,49.20
2022-08-09T13:33:17.331Z,52.80
2022-08-09T13:36:41.467Z,48.04
2022-08-09T13:38:55.407Z,55.26
2022-08-09T13:41:58.731Z,51.17
2022-08-09T13:44:16.854Z,53.29
2022-08-09T13:47:28.847Z,50.39
2022-08-09T13:49:39.385Z,48.67
2022-08-09T13:52:24.670Z,49.87
2022-08-09T13:54:59.879Z,53.97
2022-08-09T13:57:36.306Z,55.62
2022-08-09T14:00:08.929Z,56.77
2022-08-09T14:02:42.776Z,56.09
2022-08-09T14:05:57.375Z,56.15
2022-08-09T14:08:19.143Z,54.79
2022-08-09T14:10:52.444Z,53.69
2022-08-09T14:14:16.220Z,51.78
2022-08-09T14:16:14.120Z,50.16
2022-08-09T14:18:45.949Z,49.09
2022-08-09T14:21:18.820Z,49.31
2022-08-09T14:23:55.389Z,50.35
2022-08-09T14:26:31.751Z,51.81
2022-08-09T14:29:01.308Z,50.92
2022-08-09T14:31:50.175Z,51.45
2022-08-09T14:34:31.609Z,50.69
2022-08-09T14:37:02.309Z,49.42
2022-08-09T14:39:45.056Z,49.99
2022-08-09T14:42:28.847Z,53.29
2022-08-09T14:46:40.307Z,51.36
2022-08-09T14:47:58.284Z,53.58
2022-08-09T14:50:32.696Z,53.05
2022-08-09T14:53:12.977Z,53.29
2022-08-09T14:55:49.934Z,51.72
2022-08-09T14:58:19.196Z,53.73
2022-08-09T15:00:47.974Z,57.21
2022-08-09T15:03:20.765Z,56.25
2022-08-09T15:05:51.272Z,53.60
2022-08-09T15:08:23.738Z,54.27
2022-08-09T15:11:00.627Z,54.36
2022-08-09T15:13:56.225Z,53.08
2022-08-09T15:16:18.659Z,56.68
2022-08-09T15:18:48.469Z,53.17
2022-08-09T15:21:55.731Z,52.87
2022-08-09T15:24:12.513Z,52.06
2022-08-09T15:26:45.892Z,53.01
2022-08-09T15:31:00.838Z,55.11
2022-08-09T15:32:04.695Z,55.61
2022-08-09T15:34:35.410Z,56.83
2022-08-09T15:37:24.365Z,58.97
2022-08-09T15:40:11.444Z,59.52
2022-08-09T15:42:42.915Z,56.61
2022-08-09T15:45:13.626Z,57.25
2022-08-09T15:47:51.468Z,56.52
2022-08-09T15:50:21.363Z,58.29
2022-08-09T15:53:06.761Z,58.38
2022-08-09T15:55:59.041Z,56.38
2022-08-09T15:58:28.356Z,59.58
2022-08-09T16:00:57.189Z,57.17
2022-08-09T16:03:29.400Z,56.91
2022-08-09T16:06:07.333Z,54.93
2022-08-09T16:08:56.707Z,56.58
2022-08-09T16:11:30.935Z,55.17
2022-08-09T16:14:07.175Z,57.20
2022-08-09T16:16:36.962Z,56.77
2022-08-09T16:19:06.002Z,57.29
2022-08-09T16:21:36.503Z,56.93
2022-08-09T16:24:05.113Z,57.07
2022-08-09T16:26:49.723Z,56.27
2022-08-09T16:29:20.217Z,56.58
2022-08-09T16:32:20.316Z,55.78
2022-08-09T16:34:54.426Z,56.73
2022-08-09T16:37:53.448Z,56.19
2022-08-09T16:40:14.563Z,56.15
2022-08-09T16:42:58.192Z,57.09
2022-08-09T16:45:30.603Z,56.99
2022-08-09T16:48:42.505Z,56.82
2022-08-09T16:50:59.290Z,55.50
2022-08-09T16:53:47.192Z,56.40
2022-08-09T16:56:26.467Z,55.71
2022-08-09T16:58:59.027Z,55.84
2022-08-09T17:01:28.964Z,55.99
2022-08-09T17:04:03.480Z,57.01
2022-08-09T17:06:33.851Z,56.01
2022-08-09T17:09:45.476Z,57.91
2022-08-09T17:12:14.168Z,58.00
2022-08-09T17:14:51.512Z,58.33
2022-08-09T17:17:27.946Z,57.88
2022-08-09T17:20:29.706Z,57.93
2022-08-09T17:22:50.387Z,57.67
2022-08-09T17:25:22.205Z,57.33
2022-08-09T17:27:54.923Z,58.20
2022-08-09T17:30:25.543Z,58.37
2022-08-09T17:33:00.932Z,58.70
2022-08-09T17:35:35.576Z,58.93
2022-08-09T17:38:30.668Z,58.50
2022-08-09T17:41:04.300Z,59.42
2022-08-09T17:43:45.702Z,58.74
2022-08-09T17:46:19.648Z,58.45
2022-08-09T17:49:04.519Z,59.21
2022-08-09T17:51:33.858Z,59.35
2022-08-09T17:54:02.935Z,59.41
2022-08-09T17:56:36.497Z,60.52
2022-08-09T17:59:11.873Z,60.15
2022-08-09T18:02:11.294Z,59.84
2022-08-09T18:04:37.578Z,59.81
2022-08-09T18:07:09.071Z,59.19
2022-08-09T18:10:04.990Z,59.12
2022-08-09T18:12:40.727Z,58.37
2022-08-09T18:15:50.455Z,59.10
2022-08-09T18:18:25.308Z,59.39
2022-08-09T18:21:17.762Z,59.60
2022-08-09T18:24:12.544Z,60.14
2022-08-09T18:26:35.832Z,60.76
2022-08-09T18:30:41.927Z,61.65
2022-08-09T18:31:57.466Z,62.36
2022-08-09T18:34:29.207Z,61.85
2022-08-09T18:37:00.199Z,61.34
2022-08-09T18:39:29.206Z,61.08
2022-08-09T18:42:08.904Z,62.01
2022-08-09T18:44:38.253Z,63.81
2022-08-09T18:47:15.729Z,63.70
2022-08-09T18:49:47.044Z,63.56
2022-08-09T18:52:18.867Z,62.90
2022-08-09T18:54:54.258Z,63.12
2022-08-09T18:57:38.668Z,63.52
2022-08-09T19:00:16.364Z,63.34
2022-08-09T19:02:45.630Z,63.08
2022-08-09T19:05:28.302Z,62.63
2022-08-09T19:08:10.476Z,61.81
2022-08-09T19:10:43.365Z,62.24
2022-08-09T19:13:22.694Z,62.26
2022-08-09T19:16:04.117Z,62.81
2022-08-09T19:18:38.687Z,63.66
2022-08-09T19:21:11.478Z,63.57
2022-08-09T19:24:33.096Z,64.08
2022-08-09T19:26:34.668Z,64.14
2022-08-09T19:29:15.343Z,63.97
2022-08-09T19:31:51.257Z,63.71
2022-08-09T19:34:23.100Z,64.20
2022-08-09T19:36:53.799Z,64.31
2022-08-09T19:39:42.934Z,63.57
2022-08-09T19:42:15.149Z,63.74
2022-08-09T19:44:49.533Z,63.50
2022-08-09T19:47:23.721Z,63.16
2022-08-09T19:50:09.610Z,63.15
2022-08-09T19:52:51.426Z,63.50
2022-08-09T19:55:30.658Z,63.41
2022-08-09T19:58:15.972Z,64.19
2022-08-09T20:00:45.595Z,64.75
2022-08-09T20:04:09.596Z,64.51
2022-08-09T20:06:04.213Z,65.05
2022-08-09T20:08:34.913Z,65.32
2022-08-09T20:11:05.398Z,65.81
2022-08-09T20:13:37.067Z,66.31
2022-08-09T20:16:34.222Z,66.73
2022-08-09T20:19:42.400Z,66.95
2022-08-09T20:21:56.985Z,66.61
2022-08-09T20:24:29.877Z,66.61
2022-08-09T20:27:07.863Z,66.50
2022-08-09T20:29:38.839Z,66.85
2022-08-09T20:32:31.396Z,67.06
2022-08-09T20:34:57.021Z,67.37
2022-08-09T20:37:25.502Z,67.38
2022-08-09T20:40:18.860Z,67.92
2022-08-09T20:43:12.290Z,67.82
2022-08-09T20:46:00.531Z,68.17
2022-08-09T20:48:33.164Z,68.09
2022-08-09T20:51:03.186Z,67.97
2022-08-09T20:53:36.519Z,67.42
2022-08-09T20:56:08.692Z,67.61
2022-08-09T20:58:38.788Z,66.82
2022-08-09T21:01:33.206Z,67.57
2022-08-09T21:05:49.717Z,67.15
2022-08-09T21:06:48.458Z,66.69
2022-08-09T21:09:32.700Z,66.50
2022-08-09T21:14:40.309Z,65.80
2022-08-09T21:18:21.017Z,66.68
2022-08-09T21:20:18.007Z,66.39
2022-08-09T21:22:46.834Z,66.48
2022-08-09T21:25:38.540Z,67.31
2022-08-09T21:28:11.885Z,68.21
2022-08-09T21:30:46.536Z,68.18
2022-08-09T21:33:18.655Z,68.55
2022-08-09T21:35:52.695Z,68.16
2022-08-09T21:38:31.510Z,67.93
2022-08-09T21:41:00.099Z,67.62
2022-08-09T21:43:58.101Z,67.05
2022-08-09T21:46:18.083Z,66.73
2022-08-09T21:48:46.646Z,66.47
2022-08-09T21:51:24.063Z,66.18
2022-08-09T21:53:54.324Z,66.51
2022-08-09T21:56:33.915Z,65.98
2022-08-09T21:59:12.054Z,65.85
2022-08-09T22:02:01.148Z,65.86
2022-08-09T22:04:55.334Z,65.89
2022-08-09T22:07:35.091Z,66.10
2022-08-09T22:10:08.277Z,66.98
2022-08-09T22:12:37.096Z,66.80
2022-08-09T22:15:07.537Z,66.72
2022-08-09T22:17:45.981Z,67.04
2022-08-09T22:20:18.374Z,67.01
2022-08-09T22:22:50.874Z,66.67
2022-08-09T22:26:05.973Z,67.18
2022-08-09T22:28:08.058Z,66.88
2022-08-09T22:30:36.603Z,67.08
2022-08-09T22:33:09.377Z,67.30
2022-08-09T22:36:02.759Z,66.93
2022-08-09T22:38:26.445Z,67.12
2022-08-09T22:40:57.495Z,67.07
2022-08-09T22:44:02.190Z,67.18
2022-08-09T22:48:15.099Z,67.62
2022-08-09T22:49:10.280Z,68.38
2022-08-09T22:51:49.325Z,68.31
2022-08-09T22:54:21.334Z,68.95
2022-08-09T22:56:50.756Z,69.60
2022-08-09T22:59:55.280Z,69.39
2022-08-09T23:02:11.290Z,70.02
2022-08-09T23:04:53.710Z,70.55
2022-08-09T23:08:23.251Z,70.61
2022-08-09T23:10:29.761Z,70.60
2022-08-09T23:12:58.155Z,70.35
2022-08-09T23:15:26.540Z,70.14
2022-08-09T23:18:00.267Z,70.30
2022-08-09T23:20:30.361Z,69.78
2022-08-09T23:22:58.683Z,70.37
2022-08-09T23:25:26.887Z,70.25
2022-08-09T23:28:11.856Z,70.13
2022-08-09T23:30:51.607Z,70.40
2022-08-09T23:33:20.699Z,70.34
2022-08-09T23:36:04.899Z,71.09
2022-08-09T23:38:48.146Z,70.94
2022-08-09T23:41:28.308Z,71.04
2022-08-09T23:43:58.036Z,70.93
2022-08-09T23:46:26.320Z,70.87
2022-08-09T23:48:54.655Z,70.83
2022-08-09T23:51:24.303Z,70.74
2022-08-09T23:53:52.726Z,70.71
2022-08-09T23:56:52.049Z,70.56
2022-08-09T23:59:12.215Z,71.15
